createdAt,value
2023-04-26T00:00:11.307Z,4.66
2023-04-26T00:00:37.471Z,4.66
2023-04-26T00:01:00.126Z,4.66
2023-04-26T00:01:30.123Z,4.82
2023-04-26T00:02:02.131Z,5.06
2023-04-26T00:02:34.323Z,5.47
2023-04-26T00:03:06.406Z,5.63
2023-04-26T00:03:38.270Z,5.79
2023-04-26T00:04:10.850Z,5.79
2023-04-26T00:04:37.794Z,5.79
2023-04-26T00:04:58.501Z,6.11
2023-04-26T00:05:30.453Z,6.27
2023-04-26T00:06:02.075Z,6.43
2023-04-26T00:06:34.152Z,6.68
2023-04-26T00:07:06.392Z,6.68
2023-04-26T00:07:38.238Z,7.08
2023-04-26T00:08:10.129Z,7.08
2023-04-26T00:08:37.375Z,7.08
2023-04-26T00:08:58.132Z,7.08
2023-04-26T00:09:30.158Z,7.24
2023-04-26T00:10:03.480Z,7.24
2023-04-26T00:10:34.671Z,7.08
2023-04-26T00:11:06.377Z,7.08
2023-04-26T00:11:38.126Z,7.08
2023-04-26T00:12:10.082Z,6.68
2023-04-26T00:12:37.485Z,6.43
2023-04-26T00:12:58.185Z,6.43
2023-04-26T00:13:30.104Z,6.43
2023-04-26T00:14:02.149Z,6.43
2023-04-26T00:14:34.473Z,6.43
2023-04-26T00:15:07.686Z,6.43
2023-04-26T00:15:38.234Z,6.43
2023-04-26T00:16:10.178Z,6.43
2023-04-26T00:16:37.483Z,6.43
2023-04-26T00:16:58.219Z,6.43
2023-04-26T00:17:30.164Z,6.27
2023-04-26T00:18:02.236Z,6.11
2023-04-26T00:18:34.112Z,6.11
2023-04-26T00:19:06.342Z,6.11
2023-04-26T00:19:38.151Z,6.11
2023-04-26T00:20:10.647Z,6.11
2023-04-26T00:20:37.370Z,6.11
2023-04-26T00:20:58.512Z,6.11
2023-04-26T00:21:29.964Z,6.11
2023-04-26T00:22:02.134Z,6.11
2023-04-26T00:22:34.282Z,6.11
2023-04-26T00:23:06.471Z,6.11
2023-04-26T00:23:38.111Z,6.11
2023-04-26T00:24:10.217Z,6.27
2023-04-26T00:24:37.511Z,6.27
2023-04-26T00:24:58.576Z,6.27
2023-04-26T00:25:30.472Z,6.11
2023-04-26T00:26:02.193Z,5.95
2023-04-26T00:26:34.104Z,5.95
2023-04-26T00:27:06.407Z,6.11
2023-04-26T00:27:38.117Z,5.95
2023-04-26T00:28:10.075Z,5.95
2023-04-26T00:28:37.451Z,5.95
2023-04-26T00:28:58.391Z,5.63
2023-04-26T00:29:30.103Z,5.63
2023-04-26T00:30:04.305Z,5.63
2023-04-26T00:30:34.448Z,5.63
2023-04-26T00:31:06.445Z,5.95
2023-04-26T00:31:38.314Z,6.11
2023-04-26T00:32:10.212Z,6.11
2023-04-26T00:32:37.449Z,6.11
2023-04-26T00:32:58.664Z,5.95
2023-04-26T00:33:30.109Z,5.95
2023-04-26T00:34:02.230Z,5.63
2023-04-26T00:34:34.180Z,5.63
2023-04-26T00:35:07.343Z,5.63
2023-04-26T00:35:38.268Z,5.47
2023-04-26T00:36:10.062Z,5.23
2023-04-26T00:36:38.271Z,5.23
2023-04-26T00:36:58.186Z,5.23
2023-04-26T00:37:30.126Z,5.47
2023-04-26T00:38:02.682Z,5.47
2023-04-26T00:38:34.078Z,5.47
2023-04-26T00:39:06.462Z,5.47
2023-04-26T00:39:38.155Z,5.47
2023-04-26T00:40:10.873Z,5.47
2023-04-26T00:40:37.485Z,5.47
2023-04-26T00:40:58.546Z,5.47
2023-04-26T00:41:30.098Z,5.47
2023-04-26T00:42:02.649Z,5.47
2023-04-26T00:42:34.168Z,5.47
2023-04-26T00:43:06.559Z,5.47
2023-04-26T00:43:38.241Z,5.47
2023-04-26T00:44:10.169Z,5.47
2023-04-26T00:44:37.575Z,5.47
2023-04-26T00:44:58.241Z,5.47
2023-04-26T00:45:31.139Z,5.47
2023-04-26T00:46:02.199Z,5.47
2023-04-26T00:46:34.135Z,5.47
2023-04-26T00:47:06.832Z,5.47
2023-04-26T00:47:38.221Z,5.47
2023-04-26T00:48:10.284Z,5.47
2023-04-26T00:48:37.381Z,5.47
2023-04-26T00:48:58.147Z,5.47
2023-04-26T00:49:30.127Z,5.47
2023-04-26T00:50:03.259Z,5.47
2023-04-26T00:50:34.231Z,5.23
2023-04-26T00:51:06.467Z,4.98
2023-04-26T00:51:38.256Z,4.82
2023-04-26T00:52:10.247Z,4.82
2023-04-26T00:52:37.373Z,4.66
2023-04-26T00:52:58.146Z,4.66
2023-04-26T00:53:30.178Z,4.34
2023-04-26T00:54:02.208Z,4.02
2023-04-26T00:54:34.083Z,4.02
2023-04-26T00:55:07.374Z,4.02
2023-04-26T00:55:38.332Z,4.02
2023-04-26T00:56:10.909Z,3.78
2023-04-26T00:56:37.421Z,3.54
2023-04-26T00:56:58.267Z,3.54
2023-04-26T00:57:30.119Z,3.78
2023-04-26T00:58:02.164Z,3.54
2023-04-26T00:58:34.078Z,3.54
2023-04-26T00:59:06.315Z,3.54
2023-04-26T00:59:38.150Z,3.54
2023-04-26T01:00:11.326Z,3.54
2023-04-26T01:00:37.519Z,3.54
2023-04-26T01:00:58.544Z,3.54
2023-04-26T01:01:30.959Z,3.54
2023-04-26T01:02:02.142Z,3.54
2023-04-26T01:02:34.330Z,3.54
2023-04-26T01:03:06.542Z,3.54
2023-04-26T01:03:38.454Z,3.54
2023-04-26T01:04:10.328Z,3.54
2023-04-26T01:04:37.472Z,3.78
2023-04-26T01:04:58.151Z,4.02
2023-04-26T01:05:30.588Z,4.34
2023-04-26T01:06:02.141Z,4.82
2023-04-26T01:06:34.536Z,4.98
2023-04-26T01:07:06.400Z,5.39
2023-04-26T01:07:38.296Z,5.63
2023-04-26T01:08:10.381Z,5.63
2023-04-26T01:08:37.493Z,5.63
2023-04-26T01:08:58.073Z,5.23
2023-04-26T01:09:30.145Z,5.23
2023-04-26T01:10:03.263Z,5.63
2023-04-26T01:10:34.418Z,5.79
2023-04-26T01:11:06.415Z,5.79
2023-04-26T01:11:38.153Z,5.79
2023-04-26T01:12:10.180Z,5.79
2023-04-26T01:12:37.398Z,5.79
2023-04-26T01:12:58.155Z,5.79
2023-04-26T01:13:30.190Z,5.79
2023-04-26T01:14:02.329Z,5.63
2023-04-26T01:14:34.132Z,5.63
2023-04-26T01:15:07.902Z,5.63
2023-04-26T01:15:38.258Z,5.47
2023-04-26T01:16:10.087Z,5.47
2023-04-26T01:16:37.571Z,5.47
2023-04-26T01:16:58.514Z,5.47
2023-04-26T01:17:30.219Z,5.47
2023-04-26T01:18:02.144Z,5.47
2023-04-26T01:18:34.747Z,5.63
2023-04-26T01:19:06.354Z,5.79
2023-04-26T01:19:38.503Z,5.95
2023-04-26T01:20:10.840Z,6.27
2023-04-26T01:20:37.472Z,6.27
2023-04-26T01:20:58.479Z,6.27
2023-04-26T01:21:30.151Z,6.43
2023-04-26T01:22:02.156Z,6.43
2023-04-26T01:22:34.505Z,6.43
2023-04-26T01:23:06.403Z,6.68
2023-04-26T01:23:38.401Z,7.08
2023-04-26T01:24:10.186Z,7.24
2023-04-26T01:24:37.454Z,7.24
2023-04-26T01:24:58.132Z,7.40
2023-04-26T01:25:30.468Z,7.40
2023-04-26T01:26:02.064Z,7.72
2023-04-26T01:26:34.107Z,7.72
2023-04-26T01:27:06.349Z,7.88
2023-04-26T01:27:38.216Z,7.88
2023-04-26T01:28:10.183Z,8.04
2023-04-26T01:28:37.462Z,8.45
2023-04-26T01:28:58.184Z,8.69
2023-04-26T01:29:30.223Z,8.69
2023-04-26T01:30:04.041Z,8.45
2023-04-26T01:30:34.495Z,8.20
2023-04-26T01:31:06.453Z,8.45
2023-04-26T01:31:38.428Z,8.20
2023-04-26T01:32:10.159Z,8.20
2023-04-26T01:32:37.592Z,8.45
2023-04-26T01:32:58.342Z,8.69
2023-04-26T01:33:30.254Z,8.45
2023-04-26T01:34:02.290Z,8.45
2023-04-26T01:34:34.389Z,8.45
2023-04-26T01:35:07.235Z,8.20
2023-04-26T01:35:38.273Z,8.20
2023-04-26T01:36:10.229Z,8.04
2023-04-26T01:36:37.456Z,8.04
2023-04-26T01:36:58.476Z,7.88
2023-04-26T01:37:30.615Z,7.88
2023-04-26T01:38:03.381Z,7.72
2023-04-26T01:38:34.124Z,7.56
2023-04-26T01:39:06.397Z,7.56
2023-04-26T01:39:38.257Z,7.56
2023-04-26T01:40:10.778Z,7.56
2023-04-26T01:40:37.512Z,7.40
2023-04-26T01:40:58.582Z,7.24
2023-04-26T01:41:30.209Z,7.24
2023-04-26T01:42:02.923Z,7.24
2023-04-26T01:42:34.470Z,7.24
2023-04-26T01:43:06.450Z,7.24
2023-04-26T01:43:38.331Z,7.24
2023-04-26T01:44:10.145Z,7.24
2023-04-26T01:44:37.556Z,7.08
2023-04-26T01:44:58.247Z,6.68
2023-04-26T01:45:31.176Z,6.43
2023-04-26T01:46:02.366Z,6.43
2023-04-26T01:46:34.675Z,6.43
2023-04-26T01:47:06.448Z,6.27
2023-04-26T01:47:38.310Z,6.43
2023-04-26T01:48:10.558Z,6.43
2023-04-26T01:48:37.495Z,6.43
2023-04-26T01:48:58.176Z,6.68
2023-04-26T01:49:30.208Z,6.92
2023-04-26T01:50:03.295Z,6.92
2023-04-26T01:50:34.507Z,7.08
2023-04-26T01:51:06.469Z,6.92
2023-04-26T01:51:38.476Z,6.92
2023-04-26T01:52:10.231Z,6.92
2023-04-26T01:52:38.317Z,6.92
2023-04-26T01:52:58.192Z,6.92
2023-04-26T01:53:30.258Z,6.92
2023-04-26T01:54:02.254Z,6.92
2023-04-26T01:54:34.297Z,6.92
2023-04-26T01:55:07.465Z,6.92
2023-04-26T01:55:38.588Z,6.92
2023-04-26T01:56:10.384Z,6.92
2023-04-26T01:56:37.435Z,6.92
2023-04-26T01:56:58.193Z,6.92
2023-04-26T01:57:30.030Z,6.92
2023-04-26T01:58:02.164Z,6.92
2023-04-26T01:58:34.496Z,6.92
2023-04-26T01:59:06.517Z,6.92
2023-04-26T01:59:38.260Z,6.92
2023-04-26T02:00:11.347Z,6.92
2023-04-26T02:00:37.628Z,6.92
2023-04-26T02:00:58.530Z,6.92
2023-04-26T02:01:30.360Z,6.92
2023-04-26T02:02:02.407Z,6.92
2023-04-26T02:02:34.280Z,6.68
2023-04-26T02:03:06.506Z,6.43
2023-04-26T02:03:38.213Z,6.43
2023-04-26T02:04:10.244Z,6.43
2023-04-26T02:04:37.638Z,6.43
2023-04-26T02:04:58.215Z,6.43
2023-04-26T02:05:30.792Z,6.27
2023-04-26T02:06:02.176Z,6.27
2023-04-26T02:06:34.373Z,6.27
2023-04-26T02:07:06.511Z,5.95
2023-04-26T02:07:38.225Z,5.79
2023-04-26T02:08:10.142Z,5.63
2023-04-26T02:08:37.602Z,5.47
2023-04-26T02:08:58.476Z,5.47
2023-04-26T02:09:30.262Z,5.47
2023-04-26T02:10:03.517Z,5.47
2023-04-26T02:10:34.444Z,5.06
2023-04-26T02:11:06.473Z,4.66
2023-04-26T02:11:38.244Z,4.66
2023-04-26T02:12:10.245Z,4.66
2023-04-26T02:12:37.486Z,4.50
2023-04-26T02:12:58.123Z,4.18
2023-04-26T02:13:30.087Z,4.18
2023-04-26T02:14:02.186Z,4.18
2023-04-26T02:14:34.116Z,4.18
2023-04-26T02:15:07.869Z,4.18
2023-04-26T02:15:38.306Z,4.02
2023-04-26T02:16:10.182Z,4.18
2023-04-26T02:16:37.493Z,4.18
2023-04-26T02:16:58.187Z,4.18
2023-04-26T02:17:30.516Z,4.18
2023-04-26T02:18:02.218Z,4.18
2023-04-26T02:18:34.367Z,4.18
2023-04-26T02:19:06.352Z,4.34
2023-04-26T02:19:38.307Z,4.34
2023-04-26T02:20:10.636Z,4.34
2023-04-26T02:20:37.469Z,4.02
2023-04-26T02:20:58.495Z,4.34
2023-04-26T02:21:30.121Z,4.82
2023-04-26T02:22:02.122Z,5.23
2023-04-26T02:22:34.170Z,5.47
2023-04-26T02:23:06.401Z,5.47
2023-04-26T02:23:38.360Z,5.47
2023-04-26T02:24:10.227Z,5.47
2023-04-26T02:24:37.545Z,5.47
2023-04-26T02:24:58.262Z,5.47
2023-04-26T02:25:30.680Z,5.47
2023-04-26T02:26:02.265Z,5.47
2023-04-26T02:26:34.181Z,5.47
2023-04-26T02:27:06.356Z,5.47
2023-04-26T02:27:38.399Z,5.63
2023-04-26T02:28:10.198Z,5.63
2023-04-26T02:28:37.454Z,5.63
2023-04-26T02:28:58.355Z,5.63
2023-04-26T02:29:43.847Z,5.63
2023-04-26T02:30:04.453Z,5.79
2023-04-26T02:30:34.296Z,5.79
2023-04-26T02:31:06.545Z,5.79
2023-04-26T02:31:38.221Z,5.63
2023-04-26T02:32:10.170Z,5.63
2023-04-26T02:32:37.489Z,5.79
2023-04-26T02:32:58.871Z,5.79
2023-04-26T02:33:30.223Z,5.63
2023-04-26T02:34:02.283Z,5.63
2023-04-26T02:34:34.197Z,5.79
2023-04-26T02:35:07.248Z,5.63
2023-04-26T02:35:38.267Z,5.47
2023-04-26T02:36:10.130Z,5.47
2023-04-26T02:36:37.488Z,5.47
2023-04-26T02:36:58.329Z,5.47
2023-04-26T02:37:30.184Z,5.47
2023-04-26T02:38:02.675Z,5.47
2023-04-26T02:38:34.182Z,5.47
2023-04-26T02:39:06.367Z,5.47
2023-04-26T02:39:38.212Z,5.47
2023-04-26T02:40:11.171Z,5.47
2023-04-26T02:40:37.432Z,5.47
2023-04-26T02:40:58.453Z,5.47
2023-04-26T02:41:30.212Z,5.47
2023-04-26T02:42:02.188Z,5.47
2023-04-26T02:42:34.176Z,5.47
2023-04-26T02:43:06.394Z,5.23
2023-04-26T02:43:38.407Z,5.23
2023-04-26T02:44:10.187Z,5.23
2023-04-26T02:44:37.426Z,4.82
2023-04-26T02:44:58.165Z,5.23
2023-04-26T02:45:31.127Z,5.23
2023-04-26T02:46:02.419Z,5.23
2023-04-26T02:46:34.334Z,4.98
2023-04-26T02:47:06.989Z,4.82
2023-04-26T02:47:38.297Z,4.66
2023-04-26T02:48:10.280Z,4.66
2023-04-26T02:48:37.545Z,4.66
2023-04-26T02:48:58.263Z,4.66
2023-04-26T02:49:30.114Z,4.66
2023-04-26T02:50:03.561Z,4.66
2023-04-26T02:50:34.776Z,4.66
2023-04-26T02:51:06.390Z,4.66
2023-04-26T02:51:38.180Z,4.66
2023-04-26T02:52:10.256Z,4.82
2023-04-26T02:52:37.508Z,4.98
2023-04-26T02:52:58.170Z,4.98
2023-04-26T02:53:30.080Z,4.98
2023-04-26T02:54:02.130Z,4.98
2023-04-26T02:54:34.169Z,5.23
2023-04-26T02:55:07.340Z,5.23
2023-04-26T02:55:38.255Z,5.47
2023-04-26T02:56:10.924Z,5.47
2023-04-26T02:56:37.640Z,5.47
2023-04-26T02:56:58.323Z,5.47
2023-04-26T02:57:30.160Z,5.47
2023-04-26T02:58:02.313Z,5.47
2023-04-26T02:58:34.112Z,5.47
2023-04-26T02:59:06.520Z,5.47
2023-04-26T02:59:38.225Z,5.47
2023-04-26T03:00:11.810Z,5.47
2023-04-26T03:00:37.660Z,5.63
2023-04-26T03:01:01.312Z,5.63
2023-04-26T03:01:30.304Z,5.63
2023-04-26T03:02:02.230Z,5.95
2023-04-26T03:02:34.287Z,6.11
2023-04-26T03:03:07.447Z,6.27
2023-04-26T03:03:38.410Z,6.68
2023-04-26T03:04:10.484Z,6.68
2023-04-26T03:04:37.870Z,6.92
2023-04-26T03:04:58.152Z,6.92
2023-04-26T03:05:30.623Z,6.68
2023-04-26T03:06:02.243Z,6.68
2023-04-26T03:06:34.220Z,6.43
2023-04-26T03:07:06.373Z,6.43
2023-04-26T03:07:38.301Z,6.43
2023-04-26T03:08:10.222Z,6.43
2023-04-26T03:08:37.543Z,6.27
2023-04-26T03:08:58.130Z,6.11
2023-04-26T03:09:30.136Z,5.95
2023-04-26T03:10:03.282Z,5.79
2023-04-26T03:10:34.541Z,5.79
2023-04-26T03:11:06.351Z,5.95
2023-04-26T03:11:38.292Z,6.11
2023-04-26T03:12:10.268Z,6.11
2023-04-26T03:12:37.438Z,5.95
2023-04-26T03:12:58.276Z,5.79
2023-04-26T03:13:30.153Z,5.79
2023-04-26T03:14:02.290Z,5.79
2023-04-26T03:14:34.306Z,5.79
2023-04-26T03:15:07.806Z,5.63
2023-04-26T03:15:38.307Z,5.47
2023-04-26T03:16:10.243Z,5.47
2023-04-26T03:16:37.656Z,5.47
2023-04-26T03:16:58.230Z,5.47
2023-04-26T03:17:30.264Z,5.47
2023-04-26T03:18:02.238Z,5.47
2023-04-26T03:18:34.203Z,5.47
2023-04-26T03:19:06.412Z,5.06
2023-04-26T03:19:38.345Z,4.66
2023-04-26T03:20:10.608Z,4.66
2023-04-26T03:20:37.456Z,4.66
2023-04-26T03:20:58.596Z,4.66
2023-04-26T03:21:30.131Z,4.66
2023-04-26T03:22:02.555Z,4.66
2023-04-26T03:22:34.219Z,4.66
2023-04-26T03:23:06.439Z,4.50
2023-04-26T03:23:38.321Z,4.34
2023-04-26T03:24:10.322Z,4.34
2023-04-26T03:24:37.518Z,4.34
2023-04-26T03:24:58.435Z,4.34
2023-04-26T03:25:30.715Z,4.34
2023-04-26T03:26:02.202Z,4.34
2023-04-26T03:26:34.173Z,4.34
2023-04-26T03:27:06.472Z,4.50
2023-04-26T03:27:38.269Z,4.50
2023-04-26T03:28:26.878Z,4.50
2023-04-26T03:28:58.360Z,4.66
2023-04-26T03:29:30.160Z,4.66
2023-04-26T03:30:04.519Z,4.82
2023-04-26T03:30:34.513Z,5.23
2023-04-26T03:31:06.562Z,5.47
2023-04-26T03:31:38.322Z,5.47
2023-04-26T03:32:10.718Z,5.47
2023-04-26T03:32:37.388Z,5.47
2023-04-26T03:32:58.145Z,5.47
2023-04-26T03:33:30.218Z,5.47
2023-04-26T03:34:02.339Z,5.47
2023-04-26T03:34:34.183Z,5.47
2023-04-26T03:35:07.461Z,5.47
2023-04-26T03:35:38.190Z,5.47
2023-04-26T03:36:10.298Z,5.23
2023-04-26T03:36:37.388Z,5.23
2023-04-26T03:36:58.155Z,4.82
2023-04-26T03:37:30.644Z,4.34
2023-04-26T03:38:02.251Z,4.02
2023-04-26T03:38:34.363Z,4.02
2023-04-26T03:39:06.613Z,4.02
2023-04-26T03:39:38.206Z,4.02
2023-04-26T03:40:10.933Z,3.78
2023-04-26T03:40:37.469Z,3.78
2023-04-26T03:40:58.579Z,3.78
2023-04-26T03:41:30.196Z,3.54
2023-04-26T03:42:02.257Z,3.54
2023-04-26T03:42:34.638Z,3.54
2023-04-26T03:43:06.465Z,3.54
2023-04-26T03:43:38.332Z,3.54
2023-04-26T03:44:10.332Z,3.54
2023-04-26T03:44:37.548Z,3.54
2023-04-26T03:44:58.320Z,3.54
2023-04-26T03:45:31.156Z,3.54
2023-04-26T03:46:02.636Z,3.54
2023-04-26T03:46:34.747Z,3.54
2023-04-26T03:47:06.567Z,3.54
2023-04-26T03:47:38.364Z,3.54
2023-04-26T03:48:10.570Z,3.54
2023-04-26T03:48:37.440Z,3.54
2023-04-26T03:48:58.176Z,3.54
2023-04-26T03:49:30.142Z,3.54
2023-04-26T03:50:04.169Z,3.54
2023-04-26T03:50:34.304Z,3.54
2023-04-26T03:51:06.635Z,3.54
2023-04-26T03:51:38.760Z,3.54
2023-04-26T03:52:10.431Z,3.54
2023-04-26T03:52:38.256Z,3.54
2023-04-26T03:53:00.178Z,3.54
2023-04-26T03:53:30.460Z,3.54
2023-04-26T03:54:02.549Z,3.54
2023-04-26T03:54:34.519Z,3.54
2023-04-26T03:55:07.482Z,3.78
2023-04-26T03:55:39.062Z,4.02
2023-04-26T03:56:10.522Z,4.02
2023-04-26T03:56:37.837Z,4.02
2023-04-26T03:56:58.520Z,4.02
2023-04-26T03:57:30.508Z,4.02
2023-04-26T03:58:02.640Z,4.02
2023-04-26T03:58:34.480Z,4.18
2023-04-26T03:59:06.761Z,4.02
2023-04-26T03:59:38.684Z,4.02
2023-04-26T04:00:11.845Z,4.02
2023-04-26T04:00:37.864Z,4.02
2023-04-26T04:00:59.335Z,4.02
2023-04-26T04:01:30.486Z,4.02
2023-04-26T04:02:02.602Z,4.02
2023-04-26T04:02:34.596Z,4.02
2023-04-26T04:03:07.233Z,4.02
2023-04-26T04:03:41.270Z,4.02
2023-04-26T04:04:10.901Z,4.18
2023-04-26T04:04:37.950Z,4.50
2023-04-26T04:04:58.832Z,4.66
2023-04-26T04:05:30.946Z,4.66
2023-04-26T04:06:02.564Z,4.66
2023-04-26T04:06:34.618Z,4.66
2023-04-26T04:07:06.904Z,4.66
2023-04-26T04:07:38.647Z,4.66
2023-04-26T04:08:10.685Z,4.50
2023-04-26T04:08:37.722Z,4.50
2023-04-26T04:08:58.490Z,4.50
2023-04-26T04:09:30.544Z,4.66
2023-04-26T04:10:03.826Z,4.66
2023-04-26T04:10:34.837Z,4.66
2023-04-26T04:11:06.802Z,4.82
2023-04-26T04:11:38.831Z,4.82
2023-04-26T04:12:10.628Z,4.82
2023-04-26T04:12:37.766Z,4.82
2023-04-26T04:12:58.562Z,4.82
2023-04-26T04:13:30.588Z,4.82
2023-04-26T04:14:02.553Z,4.82
2023-04-26T04:14:34.577Z,4.50
2023-04-26T04:15:08.240Z,4.50
2023-04-26T04:15:38.670Z,4.34
2023-04-26T04:16:11.415Z,4.34
2023-04-26T04:16:37.725Z,4.34
2023-04-26T04:16:58.560Z,4.34
2023-04-26T04:17:30.627Z,4.18
2023-04-26T04:18:02.668Z,4.18
2023-04-26T04:18:34.721Z,4.18
2023-04-26T04:19:06.737Z,3.78
2023-04-26T04:19:38.613Z,3.54
2023-04-26T04:20:11.026Z,3.54
2023-04-26T04:20:37.807Z,3.54
2023-04-26T04:20:58.746Z,3.54
2023-04-26T04:21:30.537Z,3.78
2023-04-26T04:22:02.554Z,3.78
2023-04-26T04:22:34.509Z,3.78
2023-04-26T04:23:06.800Z,3.78
2023-04-26T04:23:38.613Z,4.02
2023-04-26T04:24:11.224Z,4.02
2023-04-26T04:24:37.858Z,4.34
2023-04-26T04:24:58.598Z,4.34
2023-04-26T04:25:30.983Z,4.34
2023-04-26T04:26:02.437Z,4.66
2023-04-26T04:26:34.556Z,4.82
2023-04-26T04:27:07.167Z,4.98
2023-04-26T04:27:38.662Z,5.23
2023-04-26T04:28:10.627Z,5.47
2023-04-26T04:28:37.888Z,5.47
2023-04-26T04:28:58.703Z,5.47
2023-04-26T04:29:30.555Z,5.47
2023-04-26T04:30:04.781Z,5.47
2023-04-26T04:30:34.879Z,5.47
2023-04-26T04:31:06.705Z,5.47
2023-04-26T04:31:38.741Z,5.47
2023-04-26T04:32:10.591Z,5.47
2023-04-26T04:32:37.862Z,5.47
2023-04-26T04:32:59.039Z,5.47
2023-04-26T04:33:30.474Z,5.47
2023-04-26T04:34:02.721Z,5.47
2023-04-26T04:34:34.859Z,5.47
2023-04-26T04:35:07.576Z,5.47
2023-04-26T04:35:38.626Z,5.47
2023-04-26T04:36:10.443Z,5.47
2023-04-26T04:36:37.736Z,5.47
2023-04-26T04:36:58.585Z,5.47
2023-04-26T04:37:30.435Z,5.47
2023-04-26T04:38:02.945Z,5.47
2023-04-26T04:38:34.618Z,5.47
2023-04-26T04:39:06.867Z,5.47
2023-04-26T04:39:38.617Z,5.47
2023-04-26T04:40:11.829Z,5.47
2023-04-26T04:40:37.803Z,5.23
2023-04-26T04:40:58.901Z,5.23
2023-04-26T04:41:30.450Z,5.23
2023-04-26T04:42:02.846Z,5.47
2023-04-26T04:42:34.481Z,5.23
2023-04-26T04:43:07.052Z,4.98
2023-04-26T04:43:38.848Z,4.82
2023-04-26T04:44:10.604Z,4.66
2023-04-26T04:44:37.853Z,4.66
2023-04-26T04:44:58.967Z,4.66
2023-04-26T04:45:31.360Z,4.66
2023-04-26T04:46:02.762Z,4.50
2023-04-26T04:46:34.593Z,4.50
2023-04-26T04:47:07.634Z,4.50
2023-04-26T04:47:38.886Z,4.18
2023-04-26T04:48:10.593Z,3.78
2023-04-26T04:48:37.847Z,3.54
2023-04-26T04:48:58.489Z,3.54
2023-04-26T04:49:30.492Z,3.54
2023-04-26T04:50:03.992Z,3.54
2023-04-26T04:50:34.565Z,3.54
2023-04-26T04:51:06.702Z,3.54
2023-04-26T04:51:38.806Z,3.54
2023-04-26T04:52:10.971Z,3.54
2023-04-26T04:52:38.101Z,3.54
2023-04-26T04:52:58.477Z,3.54
2023-04-26T04:53:30.547Z,3.54
2023-04-26T04:54:02.516Z,3.54
2023-04-26T04:54:34.486Z,3.54
2023-04-26T04:55:07.626Z,3.54
2023-04-26T04:55:39.782Z,3.54
2023-04-26T04:56:11.136Z,3.54
2023-04-26T04:56:37.706Z,3.54
2023-04-26T04:56:58.689Z,3.54
2023-04-26T04:57:30.427Z,3.78
2023-04-26T04:58:02.543Z,4.02
2023-04-26T04:58:34.531Z,4.02
2023-04-26T04:59:06.663Z,4.02
2023-04-26T04:59:38.638Z,4.02
2023-04-26T05:00:11.929Z,4.02
2023-04-26T05:00:38.128Z,4.02
2023-04-26T05:00:58.986Z,4.02
2023-04-26T05:01:30.850Z,4.02
2023-04-26T05:02:02.614Z,4.02
2023-04-26T05:02:34.658Z,4.02
2023-04-26T05:03:06.729Z,4.02
2023-04-26T05:03:38.718Z,4.18
2023-04-26T05:04:10.963Z,4.66
2023-04-26T05:04:38.232Z,4.98
2023-04-26T05:04:58.538Z,4.98
2023-04-26T05:05:30.942Z,5.23
2023-04-26T05:06:02.435Z,5.47
2023-04-26T05:06:34.587Z,5.47
2023-04-26T05:07:06.727Z,5.47
2023-04-26T05:07:38.731Z,5.47
2023-04-26T05:08:10.553Z,5.47
2023-04-26T05:08:37.836Z,5.47
2023-04-26T05:08:58.871Z,5.47
2023-04-26T05:09:30.408Z,5.63
2023-04-26T05:10:04.171Z,5.95
2023-04-26T05:10:34.893Z,6.11
2023-04-26T05:11:06.604Z,6.11
2023-04-26T05:11:38.840Z,6.52
2023-04-26T05:12:10.490Z,7.08
2023-04-26T05:12:38.007Z,7.24
2023-04-26T05:12:58.652Z,7.24
2023-04-26T05:13:30.530Z,7.24
2023-04-26T05:14:02.538Z,7.24
2023-04-26T05:14:34.528Z,7.24
2023-04-26T05:15:07.968Z,7.24
2023-04-26T05:15:38.660Z,7.24
2023-04-26T05:16:10.882Z,7.24
2023-04-26T05:16:38.113Z,7.24
2023-04-26T05:16:58.574Z,7.24
2023-04-26T05:17:30.441Z,7.24
2023-04-26T05:18:02.559Z,7.24
2023-04-26T05:18:34.581Z,7.08
2023-04-26T05:19:09.233Z,6.92
2023-04-26T05:19:38.772Z,6.92
2023-04-26T05:20:11.181Z,6.92
2023-04-26T05:20:37.750Z,6.92
2023-04-26T05:20:59.175Z,6.92
2023-04-26T05:21:30.854Z,6.92
2023-04-26T05:22:02.538Z,6.92
2023-04-26T05:22:34.551Z,6.68
2023-04-26T05:23:06.702Z,6.68
2023-04-26T05:23:38.621Z,6.68
2023-04-26T05:24:10.740Z,6.92
2023-04-26T05:24:37.740Z,6.92
2023-04-26T05:24:58.627Z,6.92
2023-04-26T05:25:31.001Z,7.08
2023-04-26T05:26:02.615Z,7.24
2023-04-26T05:26:34.756Z,7.24
2023-04-26T05:27:06.872Z,7.24
2023-04-26T05:27:38.919Z,7.24
2023-04-26T05:28:10.625Z,7.24
2023-04-26T05:28:37.966Z,7.24
2023-04-26T05:28:58.834Z,7.40
2023-04-26T05:29:30.848Z,7.56
2023-04-26T05:30:04.750Z,7.56
2023-04-26T05:30:34.951Z,7.56
2023-04-26T05:31:07.997Z,7.56
2023-04-26T05:31:38.904Z,7.56
2023-04-26T05:32:10.947Z,7.56
2023-04-26T05:32:38.032Z,7.72
2023-04-26T05:32:59.005Z,7.88
2023-04-26T05:33:30.941Z,7.72
2023-04-26T05:34:02.790Z,7.88
2023-04-26T05:34:34.711Z,7.88
2023-04-26T05:35:07.742Z,8.29
2023-04-26T05:35:39.120Z,8.69
2023-04-26T05:36:10.760Z,8.69
2023-04-26T05:36:38.005Z,9.01
2023-04-26T05:36:58.973Z,9.33
2023-04-26T05:37:31.175Z,9.33
2023-04-26T05:38:02.817Z,9.33
2023-04-26T05:38:34.762Z,9.33
2023-04-26T05:39:06.961Z,9.33
2023-04-26T05:39:38.783Z,9.33
2023-04-26T05:40:11.421Z,9.33
2023-04-26T05:40:38.287Z,9.33
2023-04-26T05:40:59.122Z,9.33
2023-04-26T05:41:30.627Z,9.33
2023-04-26T05:42:02.831Z,9.33
2023-04-26T05:42:34.977Z,9.49
2023-04-26T05:43:06.830Z,9.65
2023-04-26T05:43:39.020Z,9.89
2023-04-26T05:44:11.107Z,9.89
2023-04-26T05:44:38.003Z,10.13
2023-04-26T05:44:58.984Z,10.13
2023-04-26T05:45:31.750Z,10.30
2023-04-26T05:46:02.781Z,10.13
2023-04-26T05:46:35.241Z,10.13
2023-04-26T05:47:06.986Z,10.13
2023-04-26T05:47:39.011Z,10.13
2023-04-26T05:48:10.804Z,10.13
2023-04-26T05:48:38.357Z,10.13
2023-04-26T05:48:58.760Z,10.13
2023-04-26T05:49:30.907Z,10.13
2023-04-26T05:50:04.303Z,10.13
2023-04-26T05:50:34.893Z,10.30
2023-04-26T05:51:07.065Z,10.46
2023-04-26T05:51:39.318Z,10.30
2023-04-26T05:52:10.787Z,10.13
2023-04-26T05:52:38.570Z,10.13
2023-04-26T05:52:58.731Z,10.13
2023-04-26T05:53:30.679Z,9.73
2023-04-26T05:54:02.920Z,9.49
2023-04-26T05:54:34.943Z,9.33
2023-04-26T05:55:08.230Z,9.33
2023-04-26T05:55:39.228Z,9.01
2023-04-26T05:56:11.144Z,8.69
2023-04-26T05:56:38.552Z,8.69
2023-04-26T05:56:59.373Z,8.85
2023-04-26T05:57:31.111Z,8.69
2023-04-26T05:58:03.044Z,8.69
2023-04-26T05:58:35.131Z,8.69
2023-04-26T05:59:07.204Z,8.85
2023-04-26T05:59:39.180Z,8.85
2023-04-26T06:00:12.123Z,8.85
2023-04-26T06:00:38.204Z,8.85
2023-04-26T06:00:59.459Z,8.85
2023-04-26T06:01:31.175Z,9.01
2023-04-26T06:02:03.292Z,9.17
2023-04-26T06:02:35.027Z,9.33
2023-04-26T06:03:07.359Z,9.33
2023-04-26T06:03:39.550Z,9.33
2023-04-26T06:04:11.734Z,9.33
2023-04-26T06:04:39.391Z,9.33
2023-04-26T06:04:59.314Z,9.33
2023-04-26T06:05:31.793Z,9.33
2023-04-26T06:06:03.126Z,9.49
2023-04-26T06:06:35.106Z,9.49
2023-04-26T06:07:07.161Z,9.49
2023-04-26T06:07:39.106Z,9.65
2023-04-26T06:08:11.812Z,9.65
2023-04-26T06:08:38.157Z,9.65
2023-04-26T06:08:59.140Z,9.49
2023-04-26T06:09:31.074Z,9.89
2023-04-26T06:10:04.972Z,9.89
2023-04-26T06:10:35.498Z,9.89
2023-04-26T06:11:07.201Z,10.13
2023-04-26T06:11:39.163Z,10.13
2023-04-26T06:12:11.028Z,10.13
2023-04-26T06:12:38.433Z,9.89
2023-04-26T06:12:58.966Z,10.13
2023-04-26T06:13:31.237Z,9.89
2023-04-26T06:14:03.091Z,10.13
2023-04-26T06:14:35.070Z,10.13
2023-04-26T06:15:08.495Z,10.30
2023-04-26T06:15:39.624Z,10.30
2023-04-26T06:16:11.062Z,10.13
2023-04-26T06:16:38.540Z,10.30
2023-04-26T06:16:59.241Z,10.46
2023-04-26T06:17:31.116Z,10.46
2023-04-26T06:18:03.149Z,10.46
2023-04-26T06:18:35.865Z,10.46
2023-04-26T06:19:07.217Z,10.46
2023-04-26T06:19:39.112Z,10.46
2023-04-26T06:20:11.320Z,10.46
2023-04-26T06:20:38.305Z,10.30
2023-04-26T06:20:59.628Z,10.30
2023-04-26T06:21:31.058Z,10.13
2023-04-26T06:22:03.448Z,10.13
2023-04-26T06:22:34.993Z,10.13
2023-04-26T06:23:07.415Z,10.13
2023-04-26T06:23:39.302Z,10.30
2023-04-26T06:24:11.281Z,10.13
2023-04-26T06:24:38.105Z,10.13
2023-04-26T06:24:59.378Z,10.13
2023-04-26T06:25:31.566Z,10.13
2023-04-26T06:26:03.602Z,10.13
2023-04-26T06:26:35.123Z,10.13
2023-04-26T06:27:07.230Z,9.89
2023-04-26T06:27:39.148Z,10.13
2023-04-26T06:28:12.111Z,10.13
2023-04-26T06:28:40.520Z,10.13
2023-04-26T06:29:00.629Z,10.13
2023-04-26T06:29:31.032Z,10.13
2023-04-26T06:30:05.748Z,10.30
2023-04-26T06:30:35.206Z,10.62
2023-04-26T06:31:07.312Z,10.94
2023-04-26T06:31:39.184Z,11.50
2023-04-26T06:32:11.515Z,11.90
2023-04-26T06:32:38.450Z,12.07
2023-04-26T06:32:59.474Z,12.23
2023-04-26T06:33:30.922Z,12.07
2023-04-26T06:34:03.098Z,12.07
2023-04-26T06:34:34.678Z,12.23
2023-04-26T06:35:08.107Z,12.23
2023-04-26T06:35:38.624Z,12.23
2023-04-26T06:36:10.767Z,12.39
2023-04-26T06:36:38.066Z,12.79
2023-04-26T06:36:58.737Z,13.35
2023-04-26T06:37:30.759Z,13.35
2023-04-26T06:38:03.183Z,13.35
2023-04-26T06:38:34.794Z,13.03